sensor_id;sensor_type;location;lat;lon;timestamp;temperature;humidity
15888;DHT22;56032;51.324;12.376;2022-07-06T00:00:00;20.00;94.20
15888;DHT22;56032;51.324;12.376;2022-07-06T00:02:29;19.90;94.80
15888;DHT22;56032;51.324;12.376;2022-07-06T00:04:58;19.90;96.20
15888;DHT22;56032;51.324;12.376;2022-07-06T00:07:27;19.90;96.40
15888;DHT22;56032;51.324;12.376;2022-07-06T00:09:57;19.90;95.90
15888;DHT22;56032;51.324;12.376;2022-07-06T00:12:26;19.80;95.30
15888;DHT22;56032;51.324;12.376;2022-07-06T00:14:56;19.80;94.20
15888;DHT22;56032;51.324;12.376;2022-07-06T00:17:25;19.70;94.60
15888;DHT22;56032;51.324;12.376;2022-07-06T00:19:54;19.70;94.60
15888;DHT22;56032;51.324;12.376;2022-07-06T00:22:23;19.60;94.80
15888;DHT22;56032;51.324;12.376;2022-07-06T00:24:52;19.60;94.40
15888;DHT22;56032;51.324;12.376;2022-07-06T00:27:21;19.70;94.20
15888;DHT22;56032;51.324;12.376;2022-07-06T00:29:49;19.70;93.60
15888;DHT22;56032;51.324;12.376;2022-07-06T00:32:20;19.70;93.70
15888;DHT22;56032;51.324;12.376;2022-07-06T00:34:49;19.70;93.40
15888;DHT22;56032;51.324;12.376;2022-07-06T00:37:18;19.70;92.90
15888;DHT22;56032;51.324;12.376;2022-07-06T00:39:47;19.60;93.50
15888;DHT22;56032;51.324;12.376;2022-07-06T00:42:15;19.60;93.60
15888;DHT22;56032;51.324;12.376;2022-07-06T00:44:44;19.60;93.60
15888;DHT22;56032;51.324;12.376;2022-07-06T00:47:13;19.50;93.80
15888;DHT22;56032;51.324;12.376;2022-07-06T00:49:45;19.40;94.00
15888;DHT22;56032;51.324;12.376;2022-07-06T00:52:33;19.40;94.30
15888;DHT22;56032;51.324;12.376;2022-07-06T00:55:02;19.40;94.80
15888;DHT22;56032;51.324;12.376;2022-07-06T00:57:31;19.30;94.90
15888;DHT22;56032;51.324;12.376;2022-07-06T01:00:00;19.30;95.70
15888;DHT22;56032;51.324;12.376;2022-07-06T01:02:30;19.20;96.10
15888;DHT22;56032;51.324;12.376;2022-07-06T01:05:01;19.20;96.40
15888;DHT22;56032;51.324;12.376;2022-07-06T01:07:30;19.10;96.70
15888;DHT22;56032;51.324;12.376;2022-07-06T01:09:59;19.00;97.70
15888;DHT22;56032;51.324;12.376;2022-07-06T01:12:28;19.10;98.30
15888;DHT22;56032;51.324;12.376;2022-07-06T01:14:58;18.90;98.50
15888;DHT22;56032;51.324;12.376;2022-07-06T01:17:26;18.80;99.20
15888;DHT22;56032;51.324;12.376;2022-07-06T01:19:56;18.70;99.90
15888;DHT22;56032;51.324;12.376;2022-07-06T01:22:27;18.60;99.90
15888;DHT22;56032;51.324;12.376;2022-07-06T01:24:55;18.50;99.90
15888;DHT22;56032;51.324;12.376;2022-07-06T01:27:24;18.40;99.90
15888;DHT22;56032;51.324;12.376;2022-07-06T01:29:53;18.40;99.90
15888;DHT22;56032;51.324;12.376;2022-07-06T01:32:22;18.40;99.90
15888;DHT22;56032;51.324;12.376;2022-07-06T01:34:51;18.40;99.90
15888;DHT22;56032;51.324;12.376;2022-07-06T01:37:20;18.40;99.90
15888;DHT22;56032;51.324;12.376;2022-07-06T01:39:51;18.30;99.90
15888;DHT22;56032;51.324;12.376;2022-07-06T01:42:19;18.20;99.90
15888;DHT22;56032;51.324;12.376;2022-07-06T01:44:48;18.10;99.90
15888;DHT22;56032;51.324;12.376;2022-07-06T01:47:23;18.00;99.90
15888;DHT22;56032;51.324;12.376;2022-07-06T01:49:52;17.90;99.90
15888;DHT22;56032;51.324;12.376;2022-07-06T01:52:21;17.90;99.90
15888;DHT22;56032;51.324;12.376;2022-07-06T01:54:51;17.80;99.90
15888;DHT22;56032;51.324;12.376;2022-07-06T01:57:20;17.60;99.90
15888;DHT22;56032;51.324;12.376;2022-07-06T01:59:50;17.50;99.90
15888;DHT22;56032;51.324;12.376;2022-07-06T02:02:19;17.60;99.90
15888;DHT22;56032;51.324;12.376;2022-07-06T02:04:48;17.40;99.90
15888;DHT22;56032;51.324;12.376;2022-07-06T02:07:16;17.40;99.90
15888;DHT22;56032;51.324;12.376;2022-07-06T02:09:45;17.30;99.90
15888;DHT22;56032;51.324;12.376;2022-07-06T02:12:16;17.30;99.90
15888;DHT22;56032;51.324;12.376;2022-07-06T02:14:45;17.20;99.90
15888;DHT22;56032;51.324;12.376;2022-07-06T02:17:14;17.20;99.90
15888;DHT22;56032;51.324;12.376;2022-07-06T02:19:43;17.20;99.90
15888;DHT22;56032;51.324;12.376;2022-07-06T02:22:12;17.10;99.90
15888;DHT22;56032;51.324;12.376;2022-07-06T02:24:41;17.10;99.90
15888;DHT22;56032;51.324;12.376;2022-07-06T02:27:09;17.10;99.90
15888;DHT22;56032;51.324;12.376;2022-07-06T02:29:40;17.10;99.90
15888;DHT22;56032;51.324;12.376;2022-07-06T02:32:09;17.00;99.90
15888;DHT22;56032;51.324;12.376;2022-07-06T02:34:37;17.00;99.90
15888;DHT22;56032;51.324;12.376;2022-07-06T02:37:06;17.00;99.90
15888;DHT22;56032;51.324;12.376;2022-07-06T02:39:35;16.90;99.90
15888;DHT22;56032;51.324;12.376;2022-07-06T02:42:04;16.90;99.90
15888;DHT22;56032;51.324;12.376;2022-07-06T02:44:33;16.90;99.90
15888;DHT22;56032;51.324;12.376;2022-07-06T02:47:04;16.90;99.90
15888;DHT22;56032;51.324;12.376;2022-07-06T02:49:32;16.90;99.90
15888;DHT22;56032;51.324;12.376;2022-07-06T02:52:01;16.80;99.90
15888;DHT22;56032;51.324;12.376;2022-07-06T02:54:30;16.80;99.90
15888;DHT22;56032;51.324;12.376;2022-07-06T02:57:00;16.90;99.90
15888;DHT22;56032;51.324;12.376;2022-07-06T02:59:32;16.90;99.90
15888;DHT22;56032;51.324;12.376;2022-07-06T03:02:01;16.80;99.90
15888;DHT22;56032;51.324;12.376;2022-07-06T03:04:31;16.70;99.90
15888;DHT22;56032;51.324;12.376;2022-07-06T03:07:00;16.60;99.90
15888;DHT22;56032;51.324;12.376;2022-07-06T03:09:29;16.60;99.90
15888;DHT22;56032;51.324;12.376;2022-07-06T03:11:58;16.60;99.90
15888;DHT22;56032;51.324;12.376;2022-07-06T03:14:27;16.50;99.90
15888;DHT22;56032;51.324;12.376;2022-07-06T03:16:56;16.40;99.90
15888;DHT22;56032;51.324;12.376;2022-07-06T03:19:25;16.50;99.90
15888;DHT22;56032;51.324;12.376;2022-07-06T03:21:55;16.40;99.90
15888;DHT22;56032;51.324;12.376;2022-07-06T03:24:24;16.40;99.90
15888;DHT22;56032;51.324;12.376;2022-07-06T03:26:53;16.40;99.90
15888;DHT22;56032;51.324;12.376;2022-07-06T03:29:22;16.30;99.90
15888;DHT22;56032;51.324;12.376;2022-07-06T03:31:50;16.40;99.90
15888;DHT22;56032;51.324;12.376;2022-07-06T03:34:19;16.30;99.90
15888;DHT22;56032;51.324;12.376;2022-07-06T03:36:48;16.30;99.90
15888;DHT22;56032;51.324;12.376;2022-07-06T03:39:18;16.20;99.90
15888;DHT22;56032;51.324;12.376;2022-07-06T03:41:47;16.20;99.90
15888;DHT22;56032;51.324;12.376;2022-07-06T03:44:16;16.40;99.90
15888;DHT22;56032;51.324;12.376;2022-07-06T03:46:45;16.40;99.90
15888;DHT22;56032;51.324;12.376;2022-07-06T03:49:14;16.30;99.90
15888;DHT22;56032;51.324;12.376;2022-07-06T03:51:43;16.50;99.90
15888;DHT22;56032;51.324;12.376;2022-07-06T03:54:12;16.50;99.90
15888;DHT22;56032;51.324;12.376;2022-07-06T03:56:42;16.50;99.90
15888;DHT22;56032;51.324;12.376;2022-07-06T03:59:11;16.40;99.90
15888;DHT22;56032;51.324;12.376;2022-07-06T04:01:40;16.40;99.90
15888;DHT22;56032;51.324;12.376;2022-07-06T04:04:09;16.40;99.90
15888;DHT22;56032;51.324;12.376;2022-07-06T04:06:38;16.40;99.90
15888;DHT22;56032;51.324;12.376;2022-07-06T04:09:07;16.50;99.90
15888;DHT22;56032;51.324;12.376;2022-07-06T04:11:36;16.50;99.90
15888;DHT22;56032;51.324;12.376;2022-07-06T04:14:07;16.50;99.90
15888;DHT22;56032;51.324;12.376;2022-07-06T04:16:36;16.50;99.90
15888;DHT22;56032;51.324;12.376;2022-07-06T04:19:05;16.80;99.90
15888;DHT22;56032;51.324;12.376;2022-07-06T04:21:34;16.90;99.90
15888;DHT22;56032;51.324;12.376;2022-07-06T04:24:04;16.70;99.90
15888;DHT22;56032;51.324;12.376;2022-07-06T04:26:33;16.80;99.90
15888;DHT22;56032;51.324;12.376;2022-07-06T04:29:02;17.30;99.90
15888;DHT22;56032;51.324;12.376;2022-07-06T04:31:32;17.20;99.90
15888;DHT22;56032;51.324;12.376;2022-07-06T04:34:01;17.10;99.90
15888;DHT22;56032;51.324;12.376;2022-07-06T04:36:30;16.80;99.90
15888;DHT22;56032;51.324;12.376;2022-07-06T04:38:59;16.70;99.90
15888;DHT22;56032;51.324;12.376;2022-07-06T04:41:28;16.90;99.90
15888;DHT22;56032;51.324;12.376;2022-07-06T04:43:57;17.00;99.90
15888;DHT22;56032;51.324;12.376;2022-07-06T04:46:25;17.00;99.90
15888;DHT22;56032;51.324;12.376;2022-07-06T04:48:56;17.30;99.90
15888;DHT22;56032;51.324;12.376;2022-07-06T04:51:25;18.70;99.90
15888;DHT22;56032;51.324;12.376;2022-07-06T04:53:54;18.80;99.90
15888;DHT22;56032;51.324;12.376;2022-07-06T04:56:22;18.20;99.90
15888;DHT22;56032;51.324;12.376;2022-07-06T04:58:51;18.10;99.90
15888;DHT22;56032;51.324;12.376;2022-07-06T05:01:20;17.90;99.90
15888;DHT22;56032;51.324;12.376;2022-07-06T05:03:49;17.60;99.90
15888;DHT22;56032;51.324;12.376;2022-07-06T05:06:19;17.60;99.90
15888;DHT22;56032;51.324;12.376;2022-07-06T05:08:49;17.50;99.90
15888;DHT22;56032;51.324;12.376;2022-07-06T05:11:18;17.10;99.90
15888;DHT22;56032;51.324;12.376;2022-07-06T05:13:47;17.00;99.90
15888;DHT22;56032;51.324;12.376;2022-07-06T05:16:16;17.00;99.90
15888;DHT22;56032;51.324;12.376;2022-07-06T05:18:45;17.60;99.90
15888;DHT22;56032;51.324;12.376;2022-07-06T05:21:14;18.00;99.90
15888;DHT22;56032;51.324;12.376;2022-07-06T05:23:44;18.10;99.90
15888;DHT22;56032;51.324;12.376;2022-07-06T05:26:13;18.40;99.90
15888;DHT22;56032;51.324;12.376;2022-07-06T05:28:42;18.50;99.90
15888;DHT22;56032;51.324;12.376;2022-07-06T05:31:11;18.30;99.90
15888;DHT22;56032;51.324;12.376;2022-07-06T05:33:40;17.90;99.90
15888;DHT22;56032;51.324;12.376;2022-07-06T05:36:09;17.60;99.90
15888;DHT22;56032;51.324;12.376;2022-07-06T05:38:38;17.50;99.90
15888;DHT22;56032;51.324;12.376;2022-07-06T05:41:08;17.70;99.90
15888;DHT22;56032;51.324;12.376;2022-07-06T05:43:37;17.70;99.90
15888;DHT22;56032;51.324;12.376;2022-07-06T05:46:06;17.60;99.90
15888;DHT22;56032;51.324;12.376;2022-07-06T05:48:35;17.60;99.90
15888;DHT22;56032;51.324;12.376;2022-07-06T05:51:21;17.40;99.90
15888;DHT22;56032;51.324;12.376;2022-07-06T05:53:49;17.30;99.90
15888;DHT22;56032;51.324;12.376;2022-07-06T05:56:20;17.30;99.90
15888;DHT22;56032;51.324;12.376;2022-07-06T05:58:49;17.20;99.90
15888;DHT22;56032;51.324;12.376;2022-07-06T06:01:18;17.30;99.90
15888;DHT22;56032;51.324;12.376;2022-07-06T06:03:47;17.30;99.90
15888;DHT22;56032;51.324;12.376;2022-07-06T06:06:16;17.20;99.90
15888;DHT22;56032;51.324;12.376;2022-07-06T06:08:45;17.40;99.90
15888;DHT22;56032;51.324;12.376;2022-07-06T06:11:14;17.30;99.90
15888;DHT22;56032;51.324;12.376;2022-07-06T06:13:44;17.50;99.90
15888;DHT22;56032;51.324;12.376;2022-07-06T06:16:13;17.60;99.90
15888;DHT22;56032;51.324;12.376;2022-07-06T06:18:42;17.50;99.90
15888;DHT22;56032;51.324;12.376;2022-07-06T06:21:11;17.60;99.90
15888;DHT22;56032;51.324;12.376;2022-07-06T06:23:40;17.80;99.90
15888;DHT22;56032;51.324;12.376;2022-07-06T06:26:09;18.00;99.90
15888;DHT22;56032;51.324;12.376;2022-07-06T06:28:38;18.30;99.90
15888;DHT22;56032;51.324;12.376;2022-07-06T06:31:10;18.60;99.90
15888;DHT22;56032;51.324;12.376;2022-07-06T06:33:39;18.80;99.90
15888;DHT22;56032;51.324;12.376;2022-07-06T06:36:08;18.80;99.90
15888;DHT22;56032;51.324;12.376;2022-07-06T06:38:36;18.60;99.90
15888;DHT22;56032;51.324;12.376;2022-07-06T06:41:05;18.70;99.90
15888;DHT22;56032;51.324;12.376;2022-07-06T06:43:35;18.40;99.90
15888;DHT22;56032;51.324;12.376;2022-07-06T06:46:03;18.20;99.90
15888;DHT22;56032;51.324;12.376;2022-07-06T06:48:34;18.40;99.90
15888;DHT22;56032;51.324;12.376;2022-07-06T06:51:03;18.60;99.90
15888;DHT22;56032;51.324;12.376;2022-07-06T06:53:32;18.60;99.90
15888;DHT22;56032;51.324;12.376;2022-07-06T06:56:06;18.60;99.90
15888;DHT22;56032;51.324;12.376;2022-07-06T06:58:35;18.50;99.90
15888;DHT22;56032;51.324;12.376;2022-07-06T07:01:24;18.60;99.90
15888;DHT22;56032;51.324;12.376;2022-07-06T07:03:55;18.60;99.90
15888;DHT22;56032;51.324;12.376;2022-07-06T07:06:24;18.90;99.90
15888;DHT22;56032;51.324;12.376;2022-07-06T07:08:53;18.80;99.90
15888;DHT22;56032;51.324;12.376;2022-07-06T07:11:22;19.20;99.90
15888;DHT22;56032;51.324;12.376;2022-07-06T07:13:51;19.20;99.90
15888;DHT22;56032;51.324;12.376;2022-07-06T07:16:20;19.20;99.90
15888;DHT22;56032;51.324;12.376;2022-07-06T07:18:51;19.00;99.90
15888;DHT22;56032;51.324;12.376;2022-07-06T07:21:21;18.80;99.90
15888;DHT22;56032;51.324;12.376;2022-07-06T07:23:50;19.00;99.90
15888;DHT22;56032;51.324;12.376;2022-07-06T07:26:19;19.30;99.90
15888;DHT22;56032;51.324;12.376;2022-07-06T07:28:49;19.60;99.90
15888;DHT22;56032;51.324;12.376;2022-07-06T07:31:18;19.30;99.90
15888;DHT22;56032;51.324;12.376;2022-07-06T07:33:47;19.50;99.90
15888;DHT22;56032;51.324;12.376;2022-07-06T07:36:26;19.30;99.90
15888;DHT22;56032;51.324;12.376;2022-07-06T07:38:54;19.40;99.90
15888;DHT22;56032;51.324;12.376;2022-07-06T07:41:23;19.50;99.90
15888;DHT22;56032;51.324;12.376;2022-07-06T07:43:52;19.40;99.90
15888;DHT22;56032;51.324;12.376;2022-07-06T07:46:21;19.40;99.90
15888;DHT22;56032;51.324;12.376;2022-07-06T07:48:50;19.60;99.90
15888;DHT22;56032;51.324;12.376;2022-07-06T07:51:19;19.30;99.90
15888;DHT22;56032;51.324;12.376;2022-07-06T07:53:49;19.50;99.90
15888;DHT22;56032;51.324;12.376;2022-07-06T07:56:18;19.60;99.90
15888;DHT22;56032;51.324;12.376;2022-07-06T07:58:47;20.10;99.90
15888;DHT22;56032;51.324;12.376;2022-07-06T08:01:16;19.80;99.90
15888;DHT22;56032;51.324;12.376;2022-07-06T08:03:45;19.80;99.90
15888;DHT22;56032;51.324;12.376;2022-07-06T08:06:14;19.80;99.90
15888;DHT22;56032;51.324;12.376;2022-07-06T08:08:43;19.80;99.90
15888;DHT22;56032;51.324;12.376;2022-07-06T08:11:14;20.20;99.90
15888;DHT22;56032;51.324;12.376;2022-07-06T08:13:45;20.00;99.90
15888;DHT22;56032;51.324;12.376;2022-07-06T08:16:14;20.10;99.90
15888;DHT22;56032;51.324;12.376;2022-07-06T08:18:44;20.40;99.90
15888;DHT22;56032;51.324;12.376;2022-07-06T08:21:13;20.70;99.90
15888;DHT22;56032;51.324;12.376;2022-07-06T08:23:52;20.10;99.60
15888;DHT22;56032;51.324;12.376;2022-07-06T08:26:22;20.00;99.90
15888;DHT22;56032;51.324;12.376;2022-07-06T08:28:51;19.90;99.90
15888;DHT22;56032;51.324;12.376;2022-07-06T08:31:21;19.90;99.90
15888;DHT22;56032;51.324;12.376;2022-07-06T08:34:10;20.10;99.90
15888;DHT22;56032;51.324;12.376;2022-07-06T08:36:39;20.70;98.40
15888;DHT22;56032;51.324;12.376;2022-07-06T08:39:08;21.50;99.90
15888;DHT22;56032;51.324;12.376;2022-07-06T08:44:27;20.70;95.40
15888;DHT22;56032;51.324;12.376;2022-07-06T08:46:57;20.10;96.70
15888;DHT22;56032;51.324;12.376;2022-07-06T08:49:26;20.00;96.00
15888;DHT22;56032;51.324;12.376;2022-07-06T08:51:55;20.30;95.80
15888;DHT22;56032;51.324;12.376;2022-07-06T08:54:24;20.50;94.60
15888;DHT22;56032;51.324;12.376;2022-07-06T08:56:53;20.70;93.10
15888;DHT22;56032;51.324;12.376;2022-07-06T08:59:22;20.90;92.80
15888;DHT22;56032;51.324;12.376;2022-07-06T09:01:53;21.10;91.70
15888;DHT22;56032;51.324;12.376;2022-07-06T09:04:22;21.10;91.80
15888;DHT22;56032;51.324;12.376;2022-07-06T09:06:51;21.20;90.30
15888;DHT22;56032;51.324;12.376;2022-07-06T09:09:23;21.00;90.30
15888;DHT22;56032;51.324;12.376;2022-07-06T09:11:52;21.10;90.30
15888;DHT22;56032;51.324;12.376;2022-07-06T09:14:21;20.90;90.80
15888;DHT22;56032;51.324;12.376;2022-07-06T09:16:51;21.00;90.60
15888;DHT22;56032;51.324;12.376;2022-07-06T09:19:21;20.80;90.90
15888;DHT22;56032;51.324;12.376;2022-07-06T09:21:50;21.00;90.20
15888;DHT22;56032;51.324;12.376;2022-07-06T09:24:22;21.10;90.20
15888;DHT22;56032;51.324;12.376;2022-07-06T09:26:51;21.00;89.60
15888;DHT22;56032;51.324;12.376;2022-07-06T09:29:26;21.10;88.80
15888;DHT22;56032;51.324;12.376;2022-07-06T09:31:55;21.20;87.40
15888;DHT22;56032;51.324;12.376;2022-07-06T09:34:26;21.30;87.90
15888;DHT22;56032;51.324;12.376;2022-07-06T09:37:08;20.90;85.80
15888;DHT22;56032;51.324;12.376;2022-07-06T09:39:37;20.80;86.70
15888;DHT22;56032;51.324;12.376;2022-07-06T09:42:07;20.80;86.40
15888;DHT22;56032;51.324;12.376;2022-07-06T09:44:37;21.00;87.20
15888;DHT22;56032;51.324;12.376;2022-07-06T09:47:06;21.20;85.20
15888;DHT22;56032;51.324;12.376;2022-07-06T09:49:37;21.30;82.80
15888;DHT22;56032;51.324;12.376;2022-07-06T09:52:07;21.30;82.90
15888;DHT22;56032;51.324;12.376;2022-07-06T09:54:37;21.00;83.00
15888;DHT22;56032;51.324;12.376;2022-07-06T09:57:07;21.10;83.00
15888;DHT22;56032;51.324;12.376;2022-07-06T09:59:36;21.40;82.00
15888;DHT22;56032;51.324;12.376;2022-07-06T10:02:06;21.60;81.00
15888;DHT22;56032;51.324;12.376;2022-07-06T10:04:37;21.30;80.80
15888;DHT22;56032;51.324;12.376;2022-07-06T10:07:06;21.10;81.60
15888;DHT22;56032;51.324;12.376;2022-07-06T10:09:35;20.80;81.30
15888;DHT22;56032;51.324;12.376;2022-07-06T10:12:04;20.80;82.40
15888;DHT22;56032;51.324;12.376;2022-07-06T10:14:34;21.20;82.30
15888;DHT22;56032;51.324;12.376;2022-07-06T10:17:03;21.00;80.90
15888;DHT22;56032;51.324;12.376;2022-07-06T10:19:32;20.90;80.80
15888;DHT22;56032;51.324;12.376;2022-07-06T10:22:03;21.00;81.30
15888;DHT22;56032;51.324;12.376;2022-07-06T10:24:32;20.90;81.70
15888;DHT22;56032;51.324;12.376;2022-07-06T10:27:06;20.80;82.60
15888;DHT22;56032;51.324;12.376;2022-07-06T10:29:36;20.70;82.70
15888;DHT22;56032;51.324;12.376;2022-07-06T10:32:05;20.80;81.40
15888;DHT22;56032;51.324;12.376;2022-07-06T10:34:34;20.70;81.30
15888;DHT22;56032;51.324;12.376;2022-07-06T10:37:05;21.00;82.00
15888;DHT22;56032;51.324;12.376;2022-07-06T10:39:34;21.40;80.50
15888;DHT22;56032;51.324;12.376;2022-07-06T10:42:40;21.40;78.80
15888;DHT22;56032;51.324;12.376;2022-07-06T10:45:10;21.30;78.40
15888;DHT22;56032;51.324;12.376;2022-07-06T10:47:40;21.20;78.30
15888;DHT22;56032;51.324;12.376;2022-07-06T10:50:09;21.00;78.70
15888;DHT22;56032;51.324;12.376;2022-07-06T10:52:58;21.10;79.20
15888;DHT22;56032;51.324;12.376;2022-07-06T10:55:30;21.20;78.10
15888;DHT22;56032;51.324;12.376;2022-07-06T10:57:59;21.20;77.60
15888;DHT22;56032;51.324;12.376;2022-07-06T11:06:07;21.90;77.10
15888;DHT22;56032;51.324;12.376;2022-07-06T11:08:45;21.90;74.40
15888;DHT22;56032;51.324;12.376;2022-07-06T11:11:15;21.90;74.90
15888;DHT22;56032;51.324;12.376;2022-07-06T11:13:49;22.00;72.70
15888;DHT22;56032;51.324;12.376;2022-07-06T11:16:18;22.00;72.90
15888;DHT22;56032;51.324;12.376;2022-07-06T11:18:48;21.90;74.10
15888;DHT22;56032;51.324;12.376;2022-07-06T11:21:18;21.80;73.40
15888;DHT22;56032;51.324;12.376;2022-07-06T11:23:49;21.50;71.90
15888;DHT22;56032;51.324;12.376;2022-07-06T11:26:18;21.20;72.40
15888;DHT22;56032;51.324;12.376;2022-07-06T11:28:47;21.10;73.50
15888;DHT22;56032;51.324;12.376;2022-07-06T11:31:16;21.40;73.70
15888;DHT22;56032;51.324;12.376;2022-07-06T11:33:45;21.40;73.00
15888;DHT22;56032;51.324;12.376;2022-07-06T11:36:16;21.90;73.80
15888;DHT22;56032;51.324;12.376;2022-07-06T11:38:45;22.20;71.20
15888;DHT22;56032;51.324;12.376;2022-07-06T11:41:16;22.10;70.70
15888;DHT22;56032;51.324;12.376;2022-07-06T11:43:46;22.00;71.30
15888;DHT22;56032;51.324;12.376;2022-07-06T11:46:22;22.20;71.50
15888;DHT22;56032;51.324;12.376;2022-07-06T11:48:51;22.20;70.80
15888;DHT22;56032;51.324;12.376;2022-07-06T11:51:21;22.40;70.70
15888;DHT22;56032;51.324;12.376;2022-07-06T11:53:51;22.60;69.60
15888;DHT22;56032;51.324;12.376;2022-07-06T11:56:23;22.30;68.80
15888;DHT22;56032;51.324;12.376;2022-07-06T11:58:54;22.00;69.40
15888;DHT22;56032;51.324;12.376;2022-07-06T12:01:24;21.70;70.80
15888;DHT22;56032;51.324;12.376;2022-07-06T12:03:56;21.40;70.20
15888;DHT22;56032;51.324;12.376;2022-07-06T12:06:26;21.50;70.50
15888;DHT22;56032;51.324;12.376;2022-07-06T12:08:56;21.50;70.00
15888;DHT22;56032;51.324;12.376;2022-07-06T12:11:27;22.00;70.30
15888;DHT22;56032;51.324;12.376;2022-07-06T12:13:57;22.30;68.00
15888;DHT22;56032;51.324;12.376;2022-07-06T12:16:28;22.30;67.80
15888;DHT22;56032;51.324;12.376;2022-07-06T12:18:58;22.20;68.30
15888;DHT22;56032;51.324;12.376;2022-07-06T12:21:33;22.10;68.40
15888;DHT22;56032;51.324;12.376;2022-07-06T12:24:05;22.20;68.60
15888;DHT22;56032;51.324;12.376;2022-07-06T12:26:39;22.50;67.70
15888;DHT22;56032;51.324;12.376;2022-07-06T12:29:10;22.30;67.90
15888;DHT22;56032;51.324;12.376;2022-07-06T12:31:41;22.70;67.30
15888;DHT22;56032;51.324;12.376;2022-07-06T12:34:13;22.30;66.10
15888;DHT22;56032;51.324;12.376;2022-07-06T12:36:43;22.00;67.80
15888;DHT22;56032;51.324;12.376;2022-07-06T12:39:12;21.90;67.70
15888;DHT22;56032;51.324;12.376;2022-07-06T12:41:47;22.00;67.70
15888;DHT22;56032;51.324;12.376;2022-07-06T12:44:16;22.10;68.60
15888;DHT22;56032;51.324;12.376;2022-07-06T12:46:46;22.40;67.90
15888;DHT22;56032;51.324;12.376;2022-07-06T12:49:16;22.50;67.00
15888;DHT22;56032;51.324;12.376;2022-07-06T12:51:49;22.10;65.10
15888;DHT22;56032;51.324;12.376;2022-07-06T12:54:18;21.90;66.10
15888;DHT22;56032;51.324;12.376;2022-07-06T12:57:05;21.90;65.00
15888;DHT22;56032;51.324;12.376;2022-07-06T12:59:36;22.10;65.10
15888;DHT22;56032;51.324;12.376;2022-07-06T13:02:05;22.30;64.40
15888;DHT22;56032;51.324;12.376;2022-07-06T13:04:35;22.50;63.60
15888;DHT22;56032;51.324;12.376;2022-07-06T13:07:05;22.90;62.70
15888;DHT22;56032;51.324;12.376;2022-07-06T13:09:34;22.60;62.80
15888;DHT22;56032;51.324;12.376;2022-07-06T13:12:05;22.40;63.50
15888;DHT22;56032;51.324;12.376;2022-07-06T13:14:34;22.40;63.00
15888;DHT22;56032;51.324;12.376;2022-07-06T13:17:03;22.30;64.20
15888;DHT22;56032;51.324;12.376;2022-07-06T13:19:33;22.30;64.70
15888;DHT22;56032;51.324;12.376;2022-07-06T13:22:02;22.30;65.30
15888;DHT22;56032;51.324;12.376;2022-07-06T13:24:31;22.20;65.30
15888;DHT22;56032;51.324;12.376;2022-07-06T13:27:08;22.20;65.10
15888;DHT22;56032;51.324;12.376;2022-07-06T13:29:37;22.40;64.80
15888;DHT22;56032;51.324;12.376;2022-07-06T13:32:07;22.50;64.30
15888;DHT22;56032;51.324;12.376;2022-07-06T13:34:36;22.90;63.60
15888;DHT22;56032;51.324;12.376;2022-07-06T13:37:05;22.90;61.80
15888;DHT22;56032;51.324;12.376;2022-07-06T13:39:35;22.80;62.00
15888;DHT22;56032;51.324;12.376;2022-07-06T13:42:04;22.80;62.50
15888;DHT22;56032;51.324;12.376;2022-07-06T13:44:36;22.70;62.20
15888;DHT22;56032;51.324;12.376;2022-07-06T13:47:05;22.40;62.70
15888;DHT22;56032;51.324;12.376;2022-07-06T13:49:33;22.50;63.60
15888;DHT22;56032;51.324;12.376;2022-07-06T13:52:03;22.80;62.90
15888;DHT22;56032;51.324;12.376;2022-07-06T13:54:32;23.00;62.30
15888;DHT22;56032;51.324;12.376;2022-07-06T13:57:02;23.10;62.90
15888;DHT22;56032;51.324;12.376;2022-07-06T13:59:31;22.50;63.30
15888;DHT22;56032;51.324;12.376;2022-07-06T14:02:02;22.30;64.50
15888;DHT22;56032;51.324;12.376;2022-07-06T14:04:31;22.10;64.70
15888;DHT22;56032;51.324;12.376;2022-07-06T14:07:00;22.10;65.00
15888;DHT22;56032;51.324;12.376;2022-07-06T14:09:28;22.20;65.20
15888;DHT22;56032;51.324;12.376;2022-07-06T14:11:58;22.50;64.20
15888;DHT22;56032;51.324;12.376;2022-07-06T14:14:27;22.60;63.50
15888;DHT22;56032;51.324;12.376;2022-07-06T14:16:56;22.40;63.30
15888;DHT22;56032;51.324;12.376;2022-07-06T14:19:27;22.50;64.10
15888;DHT22;56032;51.324;12.376;2022-07-06T14:21:56;22.90;63.40
15888;DHT22;56032;51.324;12.376;2022-07-06T14:24:25;22.80;62.20
15888;DHT22;56032;51.324;12.376;2022-07-06T14:26:58;22.60;62.10
15888;DHT22;56032;51.324;12.376;2022-07-06T14:29:27;22.90;62.50
15888;DHT22;56032;51.324;12.376;2022-07-06T14:31:56;23.00;61.40
15888;DHT22;56032;51.324;12.376;2022-07-06T14:34:27;22.90;61.30
15888;DHT22;56032;51.324;12.376;2022-07-06T14:36:55;22.50;62.70
15888;DHT22;56032;51.324;12.376;2022-07-06T14:39:24;22.20;63.50
15888;DHT22;56032;51.324;12.376;2022-07-06T14:41:53;22.20;64.50
15888;DHT22;56032;51.324;12.376;2022-07-06T14:44:22;22.30;63.30
15888;DHT22;56032;51.324;12.376;2022-07-06T14:46:51;22.40;62.70
15888;DHT22;56032;51.324;12.376;2022-07-06T14:49:20;22.50;62.40
15888;DHT22;56032;51.324;12.376;2022-07-06T14:51:50;22.20;62.40
15888;DHT22;56032;51.324;12.376;2022-07-06T14:54:19;22.10;62.90
15888;DHT22;56032;51.324;12.376;2022-07-06T14:56:48;21.90;63.20
15888;DHT22;56032;51.324;12.376;2022-07-06T14:59:17;21.90;62.70
15888;DHT22;56032;51.324;12.376;2022-07-06T15:01:51;22.20;62.20
15888;DHT22;56032;51.324;12.376;2022-07-06T15:04:21;22.50;61.50
15888;DHT22;56032;51.324;12.376;2022-07-06T15:06:51;22.40;62.00
15888;DHT22;56032;51.324;12.376;2022-07-06T15:09:23;22.50;62.70
15888;DHT22;56032;51.324;12.376;2022-07-06T15:11:52;22.30;63.50
15888;DHT22;56032;51.324;12.376;2022-07-06T15:14:21;22.30;64.00
15888;DHT22;56032;51.324;12.376;2022-07-06T15:16:51;22.30;63.80
15888;DHT22;56032;51.324;12.376;2022-07-06T15:19:20;22.30;63.70
15888;DHT22;56032;51.324;12.376;2022-07-06T15:21:51;22.40;63.40
15888;DHT22;56032;51.324;12.376;2022-07-06T15:24:20;22.30;63.00
15888;DHT22;56032;51.324;12.376;2022-07-06T15:26:50;22.30;63.30
15888;DHT22;56032;51.324;12.376;2022-07-06T15:29:19;22.30;63.10
15888;DHT22;56032;51.324;12.376;2022-07-06T15:31:47;22.20;63.60
15888;DHT22;56032;51.324;12.376;2022-07-06T15:34:17;21.90;63.50
15888;DHT22;56032;51.324;12.376;2022-07-06T15:36:45;21.90;64.00
15888;DHT22;56032;51.324;12.376;2022-07-06T15:39:16;21.70;64.20